sensor_id;sensor_type;location;lat;lon;timestamp;temperature;humidity
21906;DHT22;11117;48.644;9.006;2023-02-28T00:01:54;-2.50;99.70
21906;DHT22;11117;48.644;9.006;2023-02-28T00:04:19;-2.50;99.80
21906;DHT22;11117;48.644;9.006;2023-02-28T00:06:45;-2.50;99.90
21906;DHT22;11117;48.644;9.006;2023-02-28T00:09:10;-2.50;99.90
21906;DHT22;11117;48.644;9.006;2023-02-28T00:11:36;-2.50;99.90
21906;DHT22;11117;48.644;9.006;2023-02-28T00:14:01;-2.50;99.90
21906;DHT22;11117;48.644;9.006;2023-02-28T00:16:27;-2.50;99.90
21906;DHT22;11117;48.644;9.006;2023-02-28T00:18:52;-2.50;99.90
21906;DHT22;11117;48.644;9.006;2023-02-28T00:21:19;-2.60;99.90
21906;DHT22;11117;48.644;9.006;2023-02-28T00:23:44;-2.60;99.90
21906;DHT22;11117;48.644;9.006;2023-02-28T00:26:10;-2.50;99.90
21906;DHT22;11117;48.644;9.006;2023-02-28T00:28:36;-2.60;99.90
21906;DHT22;11117;48.644;9.006;2023-02-28T00:31:01;-2.60;99.90
21906;DHT22;11117;48.644;9.006;2023-02-28T00:33:27;-2.60;99.90
21906;DHT22;11117;48.644;9.006;2023-02-28T00:36:01;-2.70;99.90
21906;DHT22;11117;48.644;9.006;2023-02-28T00:38:27;-2.60;99.90
21906;DHT22;11117;48.644;9.006;2023-02-28T00:40:53;-2.70;99.90
21906;DHT22;11117;48.644;9.006;2023-02-28T00:43:18;-2.80;99.90
21906;DHT22;11117;48.644;9.006;2023-02-28T00:45:44;-2.70;99.90
21906;DHT22;11117;48.644;9.006;2023-02-28T00:48:09;-2.70;99.90
21906;DHT22;11117;48.644;9.006;2023-02-28T00:50:35;-2.80;99.90
21906;DHT22;11117;48.644;9.006;2023-02-28T00:53:00;-2.80;99.90
21906;DHT22;11117;48.644;9.006;2023-02-28T00:55:26;-2.80;99.90
21906;DHT22;11117;48.644;9.006;2023-02-28T00:57:51;-2.80;99.90
21906;DHT22;11117;48.644;9.006;2023-02-28T01:00:17;-2.80;99.90
21906;DHT22;11117;48.644;9.006;2023-02-28T01:02:42;-2.80;99.90
21906;DHT22;11117;48.644;9.006;2023-02-28T01:05:08;-2.80;99.90
21906;DHT22;11117;48.644;9.006;2023-02-28T01:07:34;-2.80;99.90
21906;DHT22;11117;48.644;9.006;2023-02-28T01:09:59;-2.80;99.90
21906;DHT22;11117;48.644;9.006;2023-02-28T01:12:25;-2.90;99.90
21906;DHT22;11117;48.644;9.006;2023-02-28T01:14:50;-2.90;99.90
21906;DHT22;11117;48.644;9.006;2023-02-28T01:17:16;-2.90;99.90
21906;DHT22;11117;48.644;9.006;2023-02-28T01:19:42;-2.90;99.90
21906;DHT22;11117;48.644;9.006;2023-02-28T01:22:07;-3.00;99.90
21906;DHT22;11117;48.644;9.006;2023-02-28T01:24:33;-2.90;99.90
21906;DHT22;11117;48.644;9.006;2023-02-28T01:26:58;-3.00;99.90
21906;DHT22;11117;48.644;9.006;2023-02-28T01:29:24;-3.00;99.90
21906;DHT22;11117;48.644;9.006;2023-02-28T01:31:50;-3.00;99.90
21906;DHT22;11117;48.644;9.006;2023-02-28T01:34:15;-3.00;99.90
21906;DHT22;11117;48.644;9.006;2023-02-28T01:36:41;-3.00;99.90
21906;DHT22;11117;48.644;9.006;2023-02-28T01:39:06;-3.00;99.90
21906;DHT22;11117;48.644;9.006;2023-02-28T01:41:33;-3.00;99.90
21906;DHT22;11117;48.644;9.006;2023-02-28T01:46:33;-3.00;99.90
21906;DHT22;11117;48.644;9.006;2023-02-28T01:49:07;-3.00;99.90
21906;DHT22;11117;48.644;9.006;2023-02-28T01:51:49;-3.00;99.90
21906;DHT22;11117;48.644;9.006;2023-02-28T01:54:18;-3.10;99.90
21906;DHT22;11117;48.644;9.006;2023-02-28T01:56:56;-3.10;99.90
21906;DHT22;11117;48.644;9.006;2023-02-28T01:59:35;-3.10;99.90
21906;DHT22;11117;48.644;9.006;2023-02-28T02:02:03;-3.10;99.90
21906;DHT22;11117;48.644;9.006;2023-02-28T02:04:38;-3.10;99.90
21906;DHT22;11117;48.644;9.006;2023-02-28T02:07:05;-3.10;99.90
21906;DHT22;11117;48.644;9.006;2023-02-28T02:09:31;-3.10;99.90
21906;DHT22;11117;48.644;9.006;2023-02-28T02:11:57;-3.10;99.90
21906;DHT22;11117;48.644;9.006;2023-02-28T02:14:35;-3.20;99.90
21906;DHT22;11117;48.644;9.006;2023-02-28T02:17:28;-3.20;99.90
21906;DHT22;11117;48.644;9.006;2023-02-28T02:25:44;-3.10;99.90
21906;DHT22;11117;48.644;9.006;2023-02-28T02:30:58;-3.10;99.90
21906;DHT22;11117;48.644;9.006;2023-02-28T02:36:25;-3.10;99.90
21906;DHT22;11117;48.644;9.006;2023-02-28T02:39:14;-3.20;99.90
21906;DHT22;11117;48.644;9.006;2023-02-28T02:41:53;-3.10;99.90
21906;DHT22;11117;48.644;9.006;2023-02-28T02:44:35;-3.10;99.90
21906;DHT22;11117;48.644;9.006;2023-02-28T02:47:10;-3.10;99.90
21906;DHT22;11117;48.644;9.006;2023-02-28T02:49:40;-3.00;99.90
21906;DHT22;11117;48.644;9.006;2023-02-28T02:52:11;-3.00;99.90
21906;DHT22;11117;48.644;9.006;2023-02-28T02:54:41;-3.00;99.90
21906;DHT22;11117;48.644;9.006;2023-02-28T02:57:11;-2.90;99.90
21906;DHT22;11117;48.644;9.006;2023-02-28T02:59:39;-3.00;99.90
21906;DHT22;11117;48.644;9.006;2023-02-28T03:02:08;-2.90;99.90
21906;DHT22;11117;48.644;9.006;2023-02-28T03:04:40;-2.90;99.90
21906;DHT22;11117;48.644;9.006;2023-02-28T03:07:07;-2.90;99.90
21906;DHT22;11117;48.644;9.006;2023-02-28T03:09:34;-2.80;99.90
21906;DHT22;11117;48.644;9.006;2023-02-28T03:11:59;-2.80;99.90
21906;DHT22;11117;48.644;9.006;2023-02-28T03:14:47;-2.90;99.90
21906;DHT22;11117;48.644;9.006;2023-02-28T03:17:52;-2.80;99.90
21906;DHT22;11117;48.644;9.006;2023-02-28T03:23:23;-2.70;99.90
21906;DHT22;11117;48.644;9.006;2023-02-28T03:25:57;-2.60;99.90
21906;DHT22;11117;48.644;9.006;2023-02-28T03:28:33;-2.70;99.90
21906;DHT22;11117;48.644;9.006;2023-02-28T03:33:38;-2.70;99.90
21906;DHT22;11117;48.644;9.006;2023-02-28T03:36:11;-2.80;99.90
21906;DHT22;11117;48.644;9.006;2023-02-28T03:38:42;-2.70;99.90
21906;DHT22;11117;48.644;9.006;2023-02-28T03:41:19;-2.60;99.90
21906;DHT22;11117;48.644;9.006;2023-02-28T03:43:55;-2.60;99.90
21906;DHT22;11117;48.644;9.006;2023-02-28T03:46:25;-2.70;99.90
21906;DHT22;11117;48.644;9.006;2023-02-28T03:49:11;-2.60;99.90
21906;DHT22;11117;48.644;9.006;2023-02-28T03:51:38;-2.50;99.90
21906;DHT22;11117;48.644;9.006;2023-02-28T03:54:18;-2.50;99.90
21906;DHT22;11117;48.644;9.006;2023-02-28T03:56:52;-2.50;99.90
21906;DHT22;11117;48.644;9.006;2023-02-28T03:59:30;-2.40;99.90
21906;DHT22;11117;48.644;9.006;2023-02-28T04:01:59;-2.40;99.90
21906;DHT22;11117;48.644;9.006;2023-02-28T04:04:25;-2.40;99.90
21906;DHT22;11117;48.644;9.006;2023-02-28T04:06:52;-2.50;99.90
21906;DHT22;11117;48.644;9.006;2023-02-28T04:09:18;-2.40;99.90
21906;DHT22;11117;48.644;9.006;2023-02-28T04:11:52;-2.50;99.90
21906;DHT22;11117;48.644;9.006;2023-02-28T04:14:18;-2.50;99.90
21906;DHT22;11117;48.644;9.006;2023-02-28T04:16:44;-2.50;99.90
21906;DHT22;11117;48.644;9.006;2023-02-28T04:19:11;-2.50;99.90
21906;DHT22;11117;48.644;9.006;2023-02-28T04:21:46;-2.40;99.90
21906;DHT22;11117;48.644;9.006;2023-02-28T04:24:14;-2.40;99.90
21906;DHT22;11117;48.644;9.006;2023-02-28T04:26:43;-2.40;99.90
21906;DHT22;11117;48.644;9.006;2023-02-28T04:29:10;-2.40;99.90
21906;DHT22;11117;48.644;9.006;2023-02-28T04:31:36;-2.30;99.90
21906;DHT22;11117;48.644;9.006;2023-02-28T04:34:02;-2.20;99.90
21906;DHT22;11117;48.644;9.006;2023-02-28T04:36:28;-2.20;99.90
21906;DHT22;11117;48.644;9.006;2023-02-28T04:38:54;-2.30;99.90
21906;DHT22;11117;48.644;9.006;2023-02-28T04:41:20;-2.20;99.90
21906;DHT22;11117;48.644;9.006;2023-02-28T04:43:46;-2.30;99.90
21906;DHT22;11117;48.644;9.006;2023-02-28T04:46:12;-2.30;99.90
21906;DHT22;11117;48.644;9.006;2023-02-28T04:48:38;-2.20;99.90
21906;DHT22;11117;48.644;9.006;2023-02-28T04:51:09;-2.20;99.90
21906;DHT22;11117;48.644;9.006;2023-02-28T04:53:36;-2.30;99.90
21906;DHT22;11117;48.644;9.006;2023-02-28T04:56:02;-2.30;99.90
21906;DHT22;11117;48.644;9.006;2023-02-28T04:58:28;-2.20;99.90
21906;DHT22;11117;48.644;9.006;2023-02-28T05:00:54;-2.20;99.90
21906;DHT22;11117;48.644;9.006;2023-02-28T05:03:20;-2.20;99.90
21906;DHT22;11117;48.644;9.006;2023-02-28T05:05:46;-2.10;99.90
21906;DHT22;11117;48.644;9.006;2023-02-28T05:08:12;-2.00;99.90
21906;DHT22;11117;48.644;9.006;2023-02-28T05:10:37;-1.90;99.90
21906;DHT22;11117;48.644;9.006;2023-02-28T05:13:03;-1.90;99.90
21906;DHT22;11117;48.644;9.006;2023-02-28T05:15:28;-1.80;99.90
21906;DHT22;11117;48.644;9.006;2023-02-28T05:17:54;-1.90;99.90
21906;DHT22;11117;48.644;9.006;2023-02-28T05:20:20;-1.90;99.90
21906;DHT22;11117;48.644;9.006;2023-02-28T05:22:45;-1.90;99.90
21906;DHT22;11117;48.644;9.006;2023-02-28T05:25:15;-2.00;99.90
21906;DHT22;11117;48.644;9.006;2023-02-28T05:27:41;-2.00;99.90
21906;DHT22;11117;48.644;9.006;2023-02-28T05:30:08;-2.00;99.90
21906;DHT22;11117;48.644;9.006;2023-02-28T05:32:33;-1.90;99.90
21906;DHT22;11117;48.644;9.006;2023-02-28T05:34:59;-1.90;99.90
21906;DHT22;11117;48.644;9.006;2023-02-28T05:37:24;-1.90;99.90
21906;DHT22;11117;48.644;9.006;2023-02-28T05:39:50;-1.90;99.90
21906;DHT22;11117;48.644;9.006;2023-02-28T05:42:16;-1.90;99.90
21906;DHT22;11117;48.644;9.006;2023-02-28T05:44:41;-1.90;99.90
21906;DHT22;11117;48.644;9.006;2023-02-28T05:47:07;-1.90;99.90
21906;DHT22;11117;48.644;9.006;2023-02-28T05:49:32;-1.90;99.90
21906;DHT22;11117;48.644;9.006;2023-02-28T05:51:58;-1.90;99.90
21906;DHT22;11117;48.644;9.006;2023-02-28T05:54:23;-1.90;99.90
21906;DHT22;11117;48.644;9.006;2023-02-28T05:56:49;-1.80;99.90
21906;DHT22;11117;48.644;9.006;2023-02-28T05:59:14;-1.90;99.90
21906;DHT22;11117;48.644;9.006;2023-02-28T06:01:42;-1.90;99.90
21906;DHT22;11117;48.644;9.006;2023-02-28T06:04:09;-1.90;99.90
21906;DHT22;11117;48.644;9.006;2023-02-28T06:06:36;-1.90;99.90
21906;DHT22;11117;48.644;9.006;2023-02-28T06:09:01;-1.90;99.90
21906;DHT22;11117;48.644;9.006;2023-02-28T06:11:27;-1.90;99.90
21906;DHT22;11117;48.644;9.006;2023-02-28T06:13:54;-1.90;99.90
21906;DHT22;11117;48.644;9.006;2023-02-28T06:16:20;-1.90;99.90
21906;DHT22;11117;48.644;9.006;2023-02-28T06:18:45;-1.90;99.90
21906;DHT22;11117;48.644;9.006;2023-02-28T06:21:12;-1.90;99.90
21906;DHT22;11117;48.644;9.006;2023-02-28T06:23:38;-1.80;99.90
21906;DHT22;11117;48.644;9.006;2023-02-28T06:26:04;-2.00;99.90
21906;DHT22;11117;48.644;9.006;2023-02-28T06:28:29;-1.90;99.90
21906;DHT22;11117;48.644;9.006;2023-02-28T06:30:55;-1.90;99.90
21906;DHT22;11117;48.644;9.006;2023-02-28T06:33:20;-1.80;99.90
21906;DHT22;11117;48.644;9.006;2023-02-28T06:35:47;-1.80;99.90
21906;DHT22;11117;48.644;9.006;2023-02-28T06:38:14;-1.90;99.90
21906;DHT22;11117;48.644;9.006;2023-02-28T06:40:40;-1.90;99.90
21906;DHT22;11117;48.644;9.006;2023-02-28T06:43:06;-1.90;99.90
21906;DHT22;11117;48.644;9.006;2023-02-28T06:45:31;-1.80;99.90
21906;DHT22;11117;48.644;9.006;2023-02-28T06:47:57;-1.80;99.90
21906;DHT22;11117;48.644;9.006;2023-02-28T06:50:22;-1.80;99.90
21906;DHT22;11117;48.644;9.006;2023-02-28T06:52:48;-1.70;99.90
21906;DHT22;11117;48.644;9.006;2023-02-28T06:55:13;-1.60;99.90
21906;DHT22;11117;48.644;9.006;2023-02-28T06:57:39;-1.60;99.90
21906;DHT22;11117;48.644;9.006;2023-02-28T07:00:07;-1.50;99.90
21906;DHT22;11117;48.644;9.006;2023-02-28T07:02:36;-1.50;99.90
21906;DHT22;11117;48.644;9.006;2023-02-28T07:05:01;-1.50;99.90
21906;DHT22;11117;48.644;9.006;2023-02-28T07:07:27;-1.40;99.90
21906;DHT22;11117;48.644;9.006;2023-02-28T07:09:52;-1.50;99.90
21906;DHT22;11117;48.644;9.006;2023-02-28T07:12:18;-1.40;99.90
21906;DHT22;11117;48.644;9.006;2023-02-28T07:14:44;-1.40;99.90
21906;DHT22;11117;48.644;9.006;2023-02-28T07:17:10;-1.30;99.90
21906;DHT22;11117;48.644;9.006;2023-02-28T07:19:36;-1.20;99.90
21906;DHT22;11117;48.644;9.006;2023-02-28T07:22:01;-1.20;99.90
21906;DHT22;11117;48.644;9.006;2023-02-28T07:24:27;-1.20;99.90
21906;DHT22;11117;48.644;9.006;2023-02-28T07:26:52;-1.20;99.90
21906;DHT22;11117;48.644;9.006;2023-02-28T07:29:18;-1.10;99.90
21906;DHT22;11117;48.644;9.006;2023-02-28T07:31:43;-1.10;99.90
21906;DHT22;11117;48.644;9.006;2023-02-28T07:34:09;-1.10;99.90
21906;DHT22;11117;48.644;9.006;2023-02-28T07:36:34;-1.10;99.90
21906;DHT22;11117;48.644;9.006;2023-02-28T07:39:00;-1.00;99.90
21906;DHT22;11117;48.644;9.006;2023-02-28T07:41:25;-1.00;99.90
21906;DHT22;11117;48.644;9.006;2023-02-28T07:43:53;-1.00;99.90
21906;DHT22;11117;48.644;9.006;2023-02-28T07:46:19;-1.00;99.90
21906;DHT22;11117;48.644;9.006;2023-02-28T07:48:45;-1.00;99.90
21906;DHT22;11117;48.644;9.006;2023-02-28T07:51:11;-0.90;99.90
21906;DHT22;11117;48.644;9.006;2023-02-28T07:53:37;-0.90;99.90
21906;DHT22;11117;48.644;9.006;2023-02-28T07:56:03;-0.80;99.90
21906;DHT22;11117;48.644;9.006;2023-02-28T07:58:30;-0.70;99.90
21906;DHT22;11117;48.644;9.006;2023-02-28T08:00:56;-0.60;99.90
21906;DHT22;11117;48.644;9.006;2023-02-28T08:03:23;-0.60;99.90
21906;DHT22;11117;48.644;9.006;2023-02-28T08:05:48;-0.50;99.90
21906;DHT22;11117;48.644;9.006;2023-02-28T08:08:15;-0.50;99.90
21906;DHT22;11117;48.644;9.006;2023-02-28T08:10:41;-0.60;99.90
21906;DHT22;11117;48.644;9.006;2023-02-28T08:13:07;-0.50;99.90
21906;DHT22;11117;48.644;9.006;2023-02-28T08:15:33;-0.50;99.90
21906;DHT22;11117;48.644;9.006;2023-02-28T08:17:58;-0.50;99.90
21906;DHT22;11117;48.644;9.006;2023-02-28T08:20:25;-0.50;99.90
21906;DHT22;11117;48.644;9.006;2023-02-28T08:22:50;-0.40;99.90
21906;DHT22;11117;48.644;9.006;2023-02-28T08:25:16;-0.50;99.90
21906;DHT22;11117;48.644;9.006;2023-02-28T08:27:42;-0.60;99.90
21906;DHT22;11117;48.644;9.006;2023-02-28T08:30:13;-0.50;99.90
21906;DHT22;11117;48.644;9.006;2023-02-28T08:32:39;-0.40;99.90
21906;DHT22;11117;48.644;9.006;2023-02-28T08:35:05;-0.30;99.90
21906;DHT22;11117;48.644;9.006;2023-02-28T08:37:31;-0.20;99.90
21906;DHT22;11117;48.644;9.006;2023-02-28T08:39:57;-0.10;99.90
21906;DHT22;11117;48.644;9.006;2023-02-28T08:42:23;-0.10;99.90
21906;DHT22;11117;48.644;9.006;2023-02-28T08:44:49;0.00;99.90
21906;DHT22;11117;48.644;9.006;2023-02-28T08:47:14;0.10;99.90
21906;DHT22;11117;48.644;9.006;2023-02-28T08:49:40;0.10;99.90
21906;DHT22;11117;48.644;9.006;2023-02-28T08:52:05;0.10;99.90
21906;DHT22;11117;48.644;9.006;2023-02-28T08:54:31;0.10;99.90
21906;DHT22;11117;48.644;9.006;2023-02-28T08:56:57;0.20;99.90
21906;DHT22;11117;48.644;9.006;2023-02-28T08:59:23;0.10;99.90
21906;DHT22;11117;48.644;9.006;2023-02-28T09:01:48;0.10;99.90
21906;DHT22;11117;48.644;9.006;2023-02-28T09:04:14;0.10;99.90
21906;DHT22;11117;48.644;9.006;2023-02-28T09:06:40;0.30;99.90
21906;DHT22;11117;48.644;9.006;2023-02-28T09:09:05;0.30;99.90
21906;DHT22;11117;48.644;9.006;2023-02-28T09:11:31;0.30;99.90
21906;DHT22;11117;48.644;9.006;2023-02-28T09:13:57;0.30;99.90
21906;DHT22;11117;48.644;9.006;2023-02-28T09:16:23;0.40;99.90
21906;DHT22;11117;48.644;9.006;2023-02-28T09:18:49;0.40;99.90
21906;DHT22;11117;48.644;9.006;2023-02-28T09:21:16;0.20;99.90
21906;DHT22;11117;48.644;9.006;2023-02-28T09:23:43;0.30;99.90
21906;DHT22;11117;48.644;9.006;2023-02-28T09:28:41;0.40;99.90
21906;DHT22;11117;48.644;9.006;2023-02-28T09:31:15;0.60;99.90
21906;DHT22;11117;48.644;9.006;2023-02-28T09:33:41;0.70;99.90
21906;DHT22;11117;48.644;9.006;2023-02-28T09:36:07;0.70;99.90
21906;DHT22;11117;48.644;9.006;2023-02-28T09:38:32;0.90;99.90
21906;DHT22;11117;48.644;9.006;2023-02-28T09:41:01;0.90;99.90
21906;DHT22;11117;48.644;9.006;2023-02-28T09:43:32;1.10;99.90
21906;DHT22;11117;48.644;9.006;2023-02-28T09:46:12;1.10;99.90
21906;DHT22;11117;48.644;9.006;2023-02-28T09:48:41;1.10;99.90
21906;DHT22;11117;48.644;9.006;2023-02-28T09:51:40;1.20;99.90
21906;DHT22;11117;48.644;9.006;2023-02-28T09:54:13;1.40;99.90
21906;DHT22;11117;48.644;9.006;2023-02-28T09:56:42;0.90;99.90
21906;DHT22;11117;48.644;9.006;2023-02-28T10:07:15;1.00;99.90
21906;DHT22;11117;48.644;9.006;2023-02-28T10:09:42;1.10;99.90
21906;DHT22;11117;48.644;9.006;2023-02-28T10:12:09;1.20;99.90
21906;DHT22;11117;48.644;9.006;2023-02-28T10:14:38;1.30;99.90
21906;DHT22;11117;48.644;9.006;2023-02-28T10:17:19;1.40;99.90
21906;DHT22;11117;48.644;9.006;2023-02-28T10:20:24;1.50;99.90
21906;DHT22;11117;48.644;9.006;2023-02-28T10:22:56;1.70;99.90
21906;DHT22;11117;48.644;9.006;2023-02-28T10:25:25;1.60;99.90
21906;DHT22;11117;48.644;9.006;2023-02-28T10:28:00;2.00;99.90
21906;DHT22;11117;48.644;9.006;2023-02-28T10:30:27;1.90;99.90
21906;DHT22;11117;48.644;9.006;2023-02-28T10:32:53;2.10;99.90
21906;DHT22;11117;48.644;9.006;2023-02-28T10:35:26;2.20;99.90
21906;DHT22;11117;48.644;9.006;2023-02-28T10:37:57;2.10;99.90
21906;DHT22;11117;48.644;9.006;2023-02-28T10:45:40;2.50;99.90
21906;DHT22;11117;48.644;9.006;2023-02-28T10:50:44;2.40;99.90
21906;DHT22;11117;48.644;9.006;2023-02-28T10:55:42;2.80;99.90
21906;DHT22;11117;48.644;9.006;2023-02-28T10:58:22;2.90;99.90
21906;DHT22;11117;48.644;9.006;2023-02-28T11:00:48;2.80;99.90
21906;DHT22;11117;48.644;9.006;2023-02-28T11:03:32;2.80;99.90
21906;DHT22;11117;48.644;9.006;2023-02-28T11:06:04;2.80;99.90
21906;DHT22;11117;48.644;9.006;2023-02-28T11:08:30;3.10;99.90
21906;DHT22;11117;48.644;9.006;2023-02-28T11:10:58;3.10;99.90
21906;DHT22;11117;48.644;9.006;2023-02-28T11:13:33;3.10;99.90
21906;DHT22;11117;48.644;9.006;2023-02-28T11:16:04;3.30;99.90
21906;DHT22;11117;48.644;9.006;2023-02-28T11:18:43;3.30;99.90
21906;DHT22;11117;48.644;9.006;2023-02-28T11:21:16;3.40;99.90
21906;DHT22;11117;48.644;9.006;2023-02-28T11:23:43;3.40;99.90
21906;DHT22;11117;48.644;9.006;2023-02-28T11:26:09;3.60;99.90
21906;DHT22;11117;48.644;9.006;2023-02-28T11:28:40;3.90;99.90
21906;DHT22;11117;48.644;9.006;2023-02-28T11:33:49;4.00;99.90
21906;DHT22;11117;48.644;9.006;2023-02-28T11:36:29;3.90;99.90
21906;DHT22;11117;48.644;9.006;2023-02-28T11:39:09;3.70;99.90
21906;DHT22;11117;48.644;9.006;2023-02-28T11:42:37;3.40;99.90
21906;DHT22;11117;48.644;9.006;2023-02-28T11:45:11;3.50;99.90
21906;DHT22;11117;48.644;9.006;2023-02-28T11:56:06;3.40;99.90
21906;DHT22;11117;48.644;9.006;2023-02-28T12:02:08;3.10;99.90
21906;DHT22;11117;48.644;9.006;2023-02-28T12:07:42;3.00;99.90
21906;DHT22;11117;48.644;9.006;2023-02-28T12:12:38;3.20;99.90
21906;DHT22;11117;48.644;9.006;2023-02-28T12:15:24;3.30;99.90
21906;DHT22;11117;48.644;9.006;2023-02-28T12:18:05;3.20;99.90
21906;DHT22;11117;48.644;9.006;2023-02-28T12:20:54;3.10;99.90
21906;DHT22;11117;48.644;9.006;2023-02-28T12:23:49;3.20;99.90
21906;DHT22;11117;48.644;9.006;2023-02-28T12:26:22;3.30;99.90
21906;DHT22;11117;48.644;9.006;2023-02-28T12:28:57;3.50;99.90
21906;DHT22;11117;48.644;9.006;2023-02-28T12:31:31;3.80;99.90
21906;DHT22;11117;48.644;9.006;2023-02-28T12:34:06;4.10;99.90
21906;DHT22;11117;48.644;9.006;2023-02-28T12:36:33;4.30;99.90
21906;DHT22;11117;48.644;9.006;2023-02-28T12:41:59;4.60;99.70
21906;DHT22;11117;48.644;9.006;2023-02-28T12:44:40;4.70;99.60
21906;DHT22;11117;48.644;9.006;2023-02-28T12:47:17;4.70;99.00
21906;DHT22;11117;48.644;9.006;2023-02-28T12:49:49;4.70;99.00
21906;DHT22;11117;48.644;9.006;2023-02-28T12:52:20;4.80;98.90
21906;DHT22;11117;48.644;9.006;2023-02-28T12:54:52;5.00;99.10
21906;DHT22;11117;48.644;9.006;2023-02-28T12:57:51;4.90;99.00
21906;DHT22;11117;48.644;9.006;2023-02-28T13:00:23;5.30;98.20
21906;DHT22;11117;48.644;9.006;2023-02-28T13:05:55;5.50;98.30
21906;DHT22;11117;48.644;9.006;2023-02-28T13:08:48;5.40;98.10
21906;DHT22;11117;48.644;9.006;2023-02-28T13:11:31;5.50;97.60
21906;DHT22;11117;48.644;9.006;2023-02-28T13:14:02;5.60;97.70
21906;DHT22;11117;48.644;9.006;2023-02-28T13:17:27;5.60;97.90
21906;DHT22;11117;48.644;9.006;2023-02-28T13:19:30;5.90;97.80
21906;DHT22;11117;48.644;9.006;2023-02-28T13:21:57;6.00;97.40
21906;DHT22;11117;48.644;9.006;2023-02-28T13:24:43;6.00;97.00
21906;DHT22;11117;48.644;9.006;2023-02-28T13:47:40;5.10;97.50
21906;DHT22;11117;48.644;9.006;2023-02-28T13:50:31;5.30;97.10
21906;DHT22;11117;48.644;9.006;2023-02-28T13:53:21;5.50;97.10
21906;DHT22;11117;48.644;9.006;2023-02-28T13:59:22;5.30;96.50
21906;DHT22;11117;48.644;9.006;2023-02-28T14:07:22;4.20;97.30
21906;DHT22;11117;48.644;9.006;2023-02-28T14:10:04;4.20;97.40
21906;DHT22;11117;48.644;9.006;2023-02-28T14:18:27;4.40;98.10
21906;DHT22;11117;48.644;9.006;2023-02-28T14:21:20;4.40;97.60
21906;DHT22;11117;48.644;9.006;2023-02-28T14:29:37;4.60;97.60
21906;DHT22;11117;48.644;9.006;2023-02-28T14:37:48;4.80;97.90
21906;DHT22;11117;48.644;9.006;2023-02-28T14:40:32;4.80;97.10
21906;DHT22;11117;48.644;9.006;2023-02-28T14:43:03;4.60;96.80
21906;DHT22;11117;48.644;9.006;2023-02-28T14:45:31;4.30;96.90
21906;DHT22;11117;48.644;9.006;2023-02-28T14:47:58;4.40;97.10
21906;DHT22;11117;48.644;9.006;2023-02-28T14:50:29;4.50;97.10
21906;DHT22;11117;48.644;9.006;2023-02-28T14:52:55;4.40;97.00
21906;DHT22;11117;48.644;9.006;2023-02-28T14:55:45;4.40;97.50
21906;DHT22;11117;48.644;9.006;2023-02-28T14:58:26;4.40;97.10
21906;DHT22;11117;48.644;9.006;2023-02-28T15:00:55;4.30;97.00
21906;DHT22;11117;48.644;9.006;2023-02-28T15:06:14;4.40;97.30
21906;DHT22;11117;48.644;9.006;2023-02-28T15:08:40;4.30;97.10
21906;DHT22;11117;48.644;9.006;2023-02-28T15:11:16;4.30;97.20
21906;DHT22;11117;48.644;9.006;2023-02-28T15:13:55;4.50;97.10
21906;DHT22;11117;48.644;9.006;2023-02-28T15:16:42;4.60;97.20
21906;DHT22;11117;48.644;9.006;2023-02-28T15:19:25;4.60;96.90
21906;DHT22;11117;48.644;9.006;2023-02-28T15:21:56;4.70;97.00
21906;DHT22;11117;48.644;9.006;2023-02-28T15:24:39;4.70;97.00
21906;DHT22;11117;48.644;9.006;2023-02-28T15:29:50;4.60;97.10
21906;DHT22;11117;48.644;9.006;2023-02-28T15:32:29;4.80;97.10
21906;DHT22;11117;48.644;9.006;2023-02-28T15:34:57;4.70;96.90
21906;DHT22;11117;48.644;9.006;2023-02-28T15:37:45;4.70;96.70
21906;DHT22;11117;48.644;9.006;2023-02-28T15:40:25;4.80;96.90
21906;DHT22;11117;48.644;9.006;2023-02-28T15:43:13;4.60;96.70
21906;DHT22;11117;48.644;9.006;2023-02-28T15:45:51;4.40;97.00
21906;DHT22;11117;48.644;9.006;2023-02-28T15:49:02;4.50;97.20
21906;DHT22;11117;48.644;9.006;2023-02-28T15:51:21;4.50;97.00
21906;DHT22;11117;48.644;9.006;2023-02-28T15:53:51;4.50;97.10
21906;DHT22;11117;48.644;9.006;2023-02-28T15:56:26;4.40;97.00
21906;DHT22;11117;48.644;9.006;2023-02-28T15:58:57;4.50;97.20
21906;DHT22;11117;48.644;9.006;2023-02-28T16:01:37;4.40;97.00
21906;DHT22;11117;48.644;9.006;2023-02-28T16:04:06;4.30;97.10
21906;DHT22;11117;48.644;9.006;2023-02-28T16:09:06;4.20;97.40
21906;DHT22;11117;48.644;9.006;2023-02-28T16:11:36;4.20;97.30
21906;DHT22;11117;48.644;9.006;2023-02-28T16:14:02;4.20;97.40
21906;DHT22;11117;48.644;9.006;2023-02-28T16:16:28;4.20;97.20
21906;DHT22;11117;48.644;9.006;2023-02-28T16:18:53;4.20;97.30
21906;DHT22;11117;48.644;9.006;2023-02-28T16:21:19;4.10;97.40
21906;DHT22;11117;48.644;9.006;2023-02-28T16:23:45;4.00;97.50
21906;DHT22;11117;48.644;9.006;2023-02-28T16:26:19;4.00;97.50
21906;DHT22;11117;48.644;9.006;2023-02-28T16:28:46;4.00;97.70
21906;DHT22;11117;48.644;9.006;2023-02-28T16:31:12;4.00;97.50
21906;DHT22;11117;48.644;9.006;2023-02-28T16:33:38;3.90;97.80
21906;DHT22;11117;48.644;9.006;2023-02-28T16:36:05;3.90;97.70
21906;DHT22;11117;48.644;9.006;2023-02-28T16:38:31;3.80;97.70
21906;DHT22;11117;48.644;9.006;2023-02-28T16:40:59;3.70;97.80
21906;DHT22;11117;48.644;9.006;2023-02-28T16:43:25;3.70;98.10
21906;DHT22;11117;48.644;9.006;2023-02-28T16:45:56;3.50;97.90
21906;DHT22;11117;48.644;9.006;2023-02-28T16:48:22;3.40;98.20
21906;DHT22;11117;48.644;9.006;2023-02-28T16:50:47;3.40;98.60
21906;DHT22;11117;48.644;9.006;2023-02-28T16:53:13;3.40;98.50
21906;DHT22;11117;48.644;9.006;2023-02-28T16:55:38;3.30;98.40
21906;DHT22;11117;48.644;9.006;2023-02-28T16:58:04;3.20;99.20
21906;DHT22;11117;48.644;9.006;2023-02-28T17:00:31;3.10;98.80
21906;DHT22;11117;48.644;9.006;2023-02-28T17:02:57;3.00;99.20
21906;DHT22;11117;48.644;9.006;2023-02-28T17:05:23;2.90;99.10
21906;DHT22;11117;48.644;9.006;2023-02-28T17:07:49;2.80;99.20
21906;DHT22;11117;48.644;9.006;2023-02-28T17:12:40;2.70;99.50
21906;DHT22;11117;48.644;9.006;2023-02-28T17:15:06;2.70;99.70
21906;DHT22;11117;48.644;9.006;2023-02-28T17:17:32;2.60;99.90
21906;DHT22;11117;48.644;9.006;2023-02-28T17:19:58;2.50;99.90
21906;DHT22;11117;48.644;9.006;2023-02-28T17:22:23;2.50;99.90
21906;DHT22;11117;48.644;9.006;2023-02-28T17:24:49;2.40;99.90
21906;DHT22;11117;48.644;9.006;2023-02-28T17:27:14;2.40;99.90
21906;DHT22;11117;48.644;9.006;2023-02-28T17:29:40;2.30;99.90
21906;DHT22;11117;48.644;9.006;2023-02-28T17:32:05;2.30;99.90
21906;DHT22;11117;48.644;9.006;2023-02-28T17:34:31;2.30;99.90
21906;DHT22;11117;48.644;9.006;2023-02-28T17:36:56;2.20;99.90
21906;DHT22;11117;48.644;9.006;2023-02-28T17:39:22;2.20;99.90
21906;DHT22;11117;48.644;9.006;2023-02-28T17:41:47;2.10;99.90
21906;DHT22;11117;48.644;9.006;2023-02-28T17:44:13;2.10;99.90
21906;DHT22;11117;48.644;9.006;2023-02-28T17:46:39;2.00;99.90
21906;DHT22;11117;48.644;9.006;2023-02-28T17:49:04;2.00;99.90
21906;DHT22;11117;48.644;9.006;2023-02-28T17:51:30;1.90;99.90
21906;DHT22;11117;48.644;9.006;2023-02-28T17:53:55;1.90;99.90
21906;DHT22;11117;48.644;9.006;2023-02-28T17:56:23;1.80;99.90
21906;DHT22;11117;48.644;9.006;2023-02-28T17:58:49;1.70;99.90